sensor_id;sensor_type;location;lat;lon;timestamp;pressure;altitude;pressure_sealevel;temperature;humidity
62462;BME280;48511;38.664;-9.202;2022-12-10T00:00:45;50130.69;;;-146.63;86.99
62462;BME280;48511;38.664;-9.202;2022-12-10T00:02:45;50101.09;;;-146.63;86.84
62462;BME280;48511;38.664;-9.202;2022-12-10T00:04:46;50105.03;;;-146.63;87.00
62462;BME280;48511;38.664;-9.202;2022-12-10T00:06:47;50122.78;;;-146.63;86.96
62462;BME280;48511;38.664;-9.202;2022-12-10T00:08:48;50118.84;;;-146.63;86.90
62462;BME280;48511;38.664;-9.202;2022-12-10T00:10:49;50144.50;;;-146.63;87.01
62462;BME280;48511;38.664;-9.202;2022-12-10T00:12:50;50138.59;;;-146.63;87.13
62462;BME280;48511;38.664;-9.202;2022-12-10T00:14:51;50114.91;;;-146.63;86.98
62462;BME280;48511;38.664;-9.202;2022-12-10T00:16:51;50071.47;;;-146.63;86.97
62462;BME280;48511;38.664;-9.202;2022-12-10T00:18:53;50130.69;;;-146.63;87.10
62462;BME280;48511;38.664;-9.202;2022-12-10T00:20:54;50107.00;;;-146.63;86.60
62462;BME280;48511;38.664;-9.202;2022-12-10T00:22:55;50122.78;;;-146.63;85.79
62462;BME280;48511;38.664;-9.202;2022-12-10T00:24:56;50081.34;;;-146.63;86.06
62462;BME280;48511;38.664;-9.202;2022-12-10T00:26:56;50079.38;;;-146.63;86.31
62462;BME280;48511;38.664;-9.202;2022-12-10T00:29:00;50116.88;;;-146.63;86.03
62462;BME280;48511;38.664;-9.202;2022-12-10T00:31:10;50134.63;;;-146.63;85.82
62462;BME280;48511;38.664;-9.202;2022-12-10T00:33:11;50114.91;;;-146.63;85.79
62462;BME280;48511;38.664;-9.202;2022-12-10T00:35:12;50101.09;;;-146.63;85.82
62462;BME280;48511;38.664;-9.202;2022-12-10T00:37:12;50103.06;;;-146.63;85.81
62462;BME280;48511;38.664;-9.202;2022-12-10T00:39:17;50118.84;;;-146.63;85.72
62462;BME280;48511;38.664;-9.202;2022-12-10T00:41:18;50091.22;;;-146.63;84.75
62462;BME280;48511;38.664;-9.202;2022-12-10T00:43:19;50112.94;;;-146.63;82.17
62462;BME280;48511;38.664;-9.202;2022-12-10T00:45:19;50067.53;;;-146.63;81.38
62462;BME280;48511;38.664;-9.202;2022-12-10T00:47:20;50091.22;;;-146.63;80.98
62462;BME280;48511;38.664;-9.202;2022-12-10T00:49:21;50110.94;;;-146.63;81.84
62462;BME280;48511;38.664;-9.202;2022-12-10T00:51:25;50118.84;;;-146.63;82.09
62462;BME280;48511;38.664;-9.202;2022-12-10T00:53:27;50091.22;;;-146.63;81.01
62462;BME280;48511;38.664;-9.202;2022-12-10T00:55:28;50138.59;;;-146.63;78.76
62462;BME280;48511;38.664;-9.202;2022-12-10T00:57:29;50105.03;;;-146.63;78.25
62462;BME280;48511;38.664;-9.202;2022-12-10T00:59:30;50107.00;;;-146.63;77.58
62462;BME280;48511;38.664;-9.202;2022-12-10T01:01:39;50081.34;;;-146.63;77.42
62462;BME280;48511;38.664;-9.202;2022-12-10T01:03:40;50126.75;;;-146.63;78.14
62462;BME280;48511;38.664;-9.202;2022-12-10T01:05:41;50091.22;;;-146.63;78.13
62462;BME280;48511;38.664;-9.202;2022-12-10T01:07:42;50118.84;;;-146.63;78.83
62462;BME280;48511;38.664;-9.202;2022-12-10T01:09:44;50105.03;;;-146.63;79.24
62462;BME280;48511;38.664;-9.202;2022-12-10T01:11:46;50138.59;;;-146.63;78.37
62462;BME280;48511;38.664;-9.202;2022-12-10T01:13:47;50095.16;;;-146.63;78.86
62462;BME280;48511;38.664;-9.202;2022-12-10T01:15:48;50087.28;;;-146.63;78.46
62462;BME280;48511;38.664;-9.202;2022-12-10T01:17:49;50120.81;;;-146.63;79.33
62462;BME280;48511;38.664;-9.202;2022-12-10T01:19:50;50166.22;;;-146.63;79.02
62462;BME280;48511;38.664;-9.202;2022-12-10T01:21:52;50107.00;;;-146.63;79.25
62462;BME280;48511;38.664;-9.202;2022-12-10T01:23:53;50126.75;;;-146.63;79.52
62462;BME280;48511;38.664;-9.202;2022-12-10T01:25:59;50122.78;;;-146.63;79.86
62462;BME280;48511;38.664;-9.202;2022-12-10T01:28:00;50110.94;;;-146.63;80.03
62462;BME280;48511;38.664;-9.202;2022-12-10T01:30:00;50130.69;;;-146.63;80.52
62462;BME280;48511;38.664;-9.202;2022-12-10T01:32:01;50107.00;;;-146.63;80.20
62462;BME280;48511;38.664;-9.202;2022-12-10T01:34:03;50093.19;;;-146.63;80.40
62462;BME280;48511;38.664;-9.202;2022-12-10T01:36:07;50122.78;;;-146.63;80.09
62462;BME280;48511;38.664;-9.202;2022-12-10T01:38:10;50075.44;;;-146.63;79.96
62462;BME280;48511;38.664;-9.202;2022-12-10T01:40:11;50081.34;;;-146.63;79.16
62462;BME280;48511;38.664;-9.202;2022-12-10T01:42:13;50130.69;;;-146.63;78.85
62462;BME280;48511;38.664;-9.202;2022-12-10T01:46:15;50079.38;;;-146.63;77.31
62462;BME280;48511;38.664;-9.202;2022-12-10T01:48:15;50107.00;;;-146.63;77.00
62462;BME280;48511;38.664;-9.202;2022-12-10T01:50:17;50116.88;;;-146.63;76.84
62462;BME280;48511;38.664;-9.202;2022-12-10T01:52:18;50118.84;;;-146.63;77.58
62462;BME280;48511;38.664;-9.202;2022-12-10T01:54:28;50110.94;;;-146.63;77.76
62462;BME280;48511;38.664;-9.202;2022-12-10T01:56:31;50110.94;;;-146.63;77.96
62462;BME280;48511;38.664;-9.202;2022-12-10T01:58:33;50122.78;;;-146.63;77.46
62462;BME280;48511;38.664;-9.202;2022-12-10T02:00:41;50114.91;;;-146.63;77.76
62462;BME280;48511;38.664;-9.202;2022-12-10T02:02:57;50095.16;;;-146.63;77.65
62462;BME280;48511;38.664;-9.202;2022-12-10T02:10:19;50107.00;;;-146.63;78.83
62462;BME280;48511;38.664;-9.202;2022-12-10T02:12:37;50112.94;;;-146.63;78.63
62462;BME280;48511;38.664;-9.202;2022-12-10T02:15:04;50130.69;;;-146.63;78.95
62462;BME280;48511;38.664;-9.202;2022-12-10T02:17:13;50126.75;;;-146.63;79.62
62462;BME280;48511;38.664;-9.202;2022-12-10T02:19:31;50081.34;;;-146.63;79.55
62462;BME280;48511;38.664;-9.202;2022-12-10T02:21:41;50099.09;;;-146.63;79.18
62462;BME280;48511;38.664;-9.202;2022-12-10T02:23:52;50114.91;;;-146.63;78.42
62462;BME280;48511;38.664;-9.202;2022-12-10T02:28:31;50122.78;;;-146.63;77.04
62462;BME280;48511;38.664;-9.202;2022-12-10T02:30:36;50067.53;;;-146.63;77.06
62462;BME280;48511;38.664;-9.202;2022-12-10T02:32:42;50101.09;;;-146.63;77.49
62462;BME280;48511;38.664;-9.202;2022-12-10T02:34:50;50103.06;;;-146.63;77.60
62462;BME280;48511;38.664;-9.202;2022-12-10T02:36:54;50112.94;;;-146.63;77.85
62462;BME280;48511;38.664;-9.202;2022-12-10T02:38:57;50091.22;;;-146.63;77.65
62462;BME280;48511;38.664;-9.202;2022-12-10T02:41:07;50085.28;;;-146.63;77.96
62462;BME280;48511;38.664;-9.202;2022-12-10T02:43:11;50093.19;;;-146.63;77.23
62462;BME280;48511;38.664;-9.202;2022-12-10T02:45:14;50130.69;;;-146.63;76.58
62462;BME280;48511;38.664;-9.202;2022-12-10T02:47:16;50110.94;;;-146.63;77.36
62462;BME280;48511;38.664;-9.202;2022-12-10T02:49:20;50124.78;;;-146.63;78.04
62462;BME280;48511;38.664;-9.202;2022-12-10T02:51:22;50101.09;;;-146.63;78.43
62462;BME280;48511;38.664;-9.202;2022-12-10T02:53:23;50110.94;;;-146.63;78.83
62462;BME280;48511;38.664;-9.202;2022-12-10T02:55:24;50099.09;;;-146.63;78.52
62462;BME280;48511;38.664;-9.202;2022-12-10T03:01:56;50107.00;;;-146.63;79.08
62462;BME280;48511;38.664;-9.202;2022-12-10T03:04:07;50101.09;;;-146.63;78.44
62462;BME280;48511;38.664;-9.202;2022-12-10T03:06:32;50081.34;;;-146.63;78.97
62462;BME280;48511;38.664;-9.202;2022-12-10T03:10:55;50126.75;;;-146.63;79.11
62462;BME280;48511;38.664;-9.202;2022-12-10T03:13:01;50110.94;;;-146.63;79.75
62462;BME280;48511;38.664;-9.202;2022-12-10T03:15:08;50105.03;;;-146.63;79.99
62462;BME280;48511;38.664;-9.202;2022-12-10T03:17:10;50118.84;;;-146.63;80.49
62462;BME280;48511;38.664;-9.202;2022-12-10T03:19:13;50128.72;;;-146.63;80.94
62462;BME280;48511;38.664;-9.202;2022-12-10T03:21:16;50103.06;;;-146.63;80.99
62462;BME280;48511;38.664;-9.202;2022-12-10T03:23:18;50067.53;;;-146.63;79.98
62462;BME280;48511;38.664;-9.202;2022-12-10T03:25:24;50126.75;;;-146.63;78.93
62462;BME280;48511;38.664;-9.202;2022-12-10T03:27:25;50134.63;;;-146.63;78.83
62462;BME280;48511;38.664;-9.202;2022-12-10T03:29:37;50095.16;;;-146.63;78.49
62462;BME280;48511;38.664;-9.202;2022-12-10T03:31:41;50107.00;;;-146.63;78.35
62462;BME280;48511;38.664;-9.202;2022-12-10T03:33:43;50093.19;;;-146.63;77.58
62462;BME280;48511;38.664;-9.202;2022-12-10T03:35:44;50095.16;;;-146.63;78.30
62462;BME280;48511;38.664;-9.202;2022-12-10T03:37:46;50095.16;;;-146.63;78.23
62462;BME280;48511;38.664;-9.202;2022-12-10T03:39:47;50130.69;;;-146.63;78.63
62462;BME280;48511;38.664;-9.202;2022-12-10T03:41:48;50103.06;;;-146.63;79.38
62462;BME280;48511;38.664;-9.202;2022-12-10T03:43:56;50105.03;;;-146.63;79.87
62462;BME280;48511;38.664;-9.202;2022-12-10T03:45:57;50116.88;;;-146.63;79.44
62462;BME280;48511;38.664;-9.202;2022-12-10T03:47:58;50138.59;;;-146.63;78.36
62462;BME280;48511;38.664;-9.202;2022-12-10T03:49:58;50110.94;;;-146.63;77.93
62462;BME280;48511;38.664;-9.202;2022-12-10T03:51:59;50110.94;;;-146.63;78.77
62462;BME280;48511;38.664;-9.202;2022-12-10T03:54:00;50112.94;;;-146.63;79.12
62462;BME280;48511;38.664;-9.202;2022-12-10T03:56:01;50099.09;;;-146.63;78.76
62462;BME280;48511;38.664;-9.202;2022-12-10T03:58:01;50122.78;;;-146.63;77.65
62462;BME280;48511;38.664;-9.202;2022-12-10T04:00:06;50118.84;;;-146.63;77.47
62462;BME280;48511;38.664;-9.202;2022-12-10T04:02:12;50114.91;;;-146.63;77.66
62462;BME280;48511;38.664;-9.202;2022-12-10T04:04:13;50114.91;;;-146.63;77.59
62462;BME280;48511;38.664;-9.202;2022-12-10T04:06:16;50112.94;;;-146.63;77.37
62462;BME280;48511;38.664;-9.202;2022-12-10T04:08:17;50158.31;;;-146.63;77.70
62462;BME280;48511;38.664;-9.202;2022-12-10T04:10:18;50101.09;;;-146.63;77.82
62462;BME280;48511;38.664;-9.202;2022-12-10T04:12:19;50126.75;;;-146.63;77.40
62462;BME280;48511;38.664;-9.202;2022-12-10T04:14:19;50075.44;;;-146.63;77.90
62462;BME280;48511;38.664;-9.202;2022-12-10T04:16:39;50112.94;;;-146.63;78.32
62462;BME280;48511;38.664;-9.202;2022-12-10T04:18:39;50114.91;;;-146.63;78.44
62462;BME280;48511;38.664;-9.202;2022-12-10T04:20:40;50107.00;;;-146.63;77.66
62462;BME280;48511;38.664;-9.202;2022-12-10T04:22:59;50124.78;;;-146.63;77.89
62462;BME280;48511;38.664;-9.202;2022-12-10T04:25:19;50101.09;;;-146.63;78.44
62462;BME280;48511;38.664;-9.202;2022-12-10T04:27:39;50107.00;;;-146.63;78.74
62462;BME280;48511;38.664;-9.202;2022-12-10T04:29:40;50099.09;;;-146.63;79.26
62462;BME280;48511;38.664;-9.202;2022-12-10T04:31:41;50107.00;;;-146.63;79.53
62462;BME280;48511;38.664;-9.202;2022-12-10T04:33:41;50128.72;;;-146.63;79.61
62462;BME280;48511;38.664;-9.202;2022-12-10T04:35:42;50103.06;;;-146.63;79.79
62462;BME280;48511;38.664;-9.202;2022-12-10T04:37:43;50130.69;;;-146.63;79.80
62462;BME280;48511;38.664;-9.202;2022-12-10T04:39:44;50105.03;;;-146.63;80.08
62462;BME280;48511;38.664;-9.202;2022-12-10T04:41:47;50114.91;;;-146.63;80.12
62462;BME280;48511;38.664;-9.202;2022-12-10T04:43:48;50146.47;;;-146.63;79.97
62462;BME280;48511;38.664;-9.202;2022-12-10T04:45:49;50112.94;;;-146.63;79.89
62462;BME280;48511;38.664;-9.202;2022-12-10T04:47:49;50134.63;;;-146.63;79.65
62462;BME280;48511;38.664;-9.202;2022-12-10T04:49:51;50126.75;;;-146.63;79.47
62462;BME280;48511;38.664;-9.202;2022-12-10T04:51:52;50099.09;;;-146.63;79.13
62462;BME280;48511;38.664;-9.202;2022-12-10T04:53:53;50150.44;;;-146.63;78.02
62462;BME280;48511;38.664;-9.202;2022-12-10T04:55:54;50110.94;;;-146.63;76.96
62462;BME280;48511;38.664;-9.202;2022-12-10T04:57:54;50110.94;;;-146.63;77.17
62462;BME280;48511;38.664;-9.202;2022-12-10T04:59:55;50120.81;;;-146.63;77.29
62462;BME280;48511;38.664;-9.202;2022-12-10T05:01:56;50095.16;;;-146.63;77.37
62462;BME280;48511;38.664;-9.202;2022-12-10T05:04:01;50146.47;;;-146.63;77.20
62462;BME280;48511;38.664;-9.202;2022-12-10T05:06:09;50122.78;;;-146.63;77.55
62462;BME280;48511;38.664;-9.202;2022-12-10T05:08:10;50118.84;;;-146.63;77.84
62462;BME280;48511;38.664;-9.202;2022-12-10T05:10:10;50093.19;;;-146.63;78.14
62462;BME280;48511;38.664;-9.202;2022-12-10T05:12:11;50107.00;;;-146.63;78.49
62462;BME280;48511;38.664;-9.202;2022-12-10T05:14:13;50118.84;;;-146.63;78.69
62462;BME280;48511;38.664;-9.202;2022-12-10T05:16:16;50118.84;;;-146.63;78.87
62462;BME280;48511;38.664;-9.202;2022-12-10T05:18:17;50122.78;;;-146.63;79.09
62462;BME280;48511;38.664;-9.202;2022-12-10T05:20:17;50112.94;;;-146.63;78.12
62462;BME280;48511;38.664;-9.202;2022-12-10T05:22:18;50110.94;;;-146.63;77.42
62462;BME280;48511;38.664;-9.202;2022-12-10T05:24:38;50099.09;;;-146.63;77.62
62462;BME280;48511;38.664;-9.202;2022-12-10T05:26:38;50118.84;;;-146.63;77.74
62462;BME280;48511;38.664;-9.202;2022-12-10T05:28:43;50103.06;;;-146.63;77.94
62462;BME280;48511;38.664;-9.202;2022-12-10T05:30:44;50116.88;;;-146.63;78.22
62462;BME280;48511;38.664;-9.202;2022-12-10T05:32:45;50110.94;;;-146.63;78.39
62462;BME280;48511;38.664;-9.202;2022-12-10T05:34:45;50126.75;;;-146.63;78.60
62462;BME280;48511;38.664;-9.202;2022-12-10T05:36:46;50130.69;;;-146.63;78.74
62462;BME280;48511;38.664;-9.202;2022-12-10T05:38:47;50132.66;;;-146.63;78.82
62462;BME280;48511;38.664;-9.202;2022-12-10T05:40:48;50126.75;;;-146.63;78.84
62462;BME280;48511;38.664;-9.202;2022-12-10T05:42:49;50103.06;;;-146.63;78.97
62462;BME280;48511;38.664;-9.202;2022-12-10T05:44:49;50166.22;;;-146.63;79.11
62462;BME280;48511;38.664;-9.202;2022-12-10T05:46:51;50099.09;;;-146.63;79.09
62462;BME280;48511;38.664;-9.202;2022-12-10T05:48:53;50126.75;;;-146.63;78.96
62462;BME280;48511;38.664;-9.202;2022-12-10T05:50:54;50099.09;;;-146.63;78.80
62462;BME280;48511;38.664;-9.202;2022-12-10T05:52:55;50091.22;;;-146.63;78.61
62462;BME280;48511;38.664;-9.202;2022-12-10T05:54:55;50126.75;;;-146.63;78.60
62462;BME280;48511;38.664;-9.202;2022-12-10T05:56:56;50120.81;;;-146.63;78.27
62462;BME280;48511;38.664;-9.202;2022-12-10T05:58:59;50103.06;;;-146.63;78.38
62462;BME280;48511;38.664;-9.202;2022-12-10T06:01:06;50114.91;;;-146.63;78.43
62462;BME280;48511;38.664;-9.202;2022-12-10T06:03:08;50116.88;;;-146.63;78.45
62462;BME280;48511;38.664;-9.202;2022-12-10T06:05:08;50124.78;;;-146.63;78.32
62462;BME280;48511;38.664;-9.202;2022-12-10T06:07:09;50110.94;;;-146.63;78.21
62462;BME280;48511;38.664;-9.202;2022-12-10T06:09:12;50138.59;;;-146.63;78.23
62462;BME280;48511;38.664;-9.202;2022-12-10T06:11:13;50101.09;;;-146.63;78.16
62462;BME280;48511;38.664;-9.202;2022-12-10T06:13:14;50116.88;;;-146.63;77.50
62462;BME280;48511;38.664;-9.202;2022-12-10T06:15:14;50114.91;;;-146.63;76.88
62462;BME280;48511;38.664;-9.202;2022-12-10T06:17:15;50107.00;;;-146.63;77.01
62462;BME280;48511;38.664;-9.202;2022-12-10T06:19:16;50099.09;;;-146.63;75.69
62462;BME280;48511;38.664;-9.202;2022-12-10T06:21:18;50099.09;;;-146.63;75.30
62462;BME280;48511;38.664;-9.202;2022-12-10T06:23:19;50079.38;;;-146.63;75.36
62462;BME280;48511;38.664;-9.202;2022-12-10T06:25:20;50130.69;;;-146.63;75.59
62462;BME280;48511;38.664;-9.202;2022-12-10T06:27:20;50099.09;;;-146.63;75.91
62462;BME280;48511;38.664;-9.202;2022-12-10T06:29:21;50075.44;;;-146.63;75.91
62462;BME280;48511;38.664;-9.202;2022-12-10T06:31:22;50110.94;;;-146.63;76.10
62462;BME280;48511;38.664;-9.202;2022-12-10T06:33:22;50118.84;;;-146.63;76.31
62462;BME280;48511;38.664;-9.202;2022-12-10T06:35:23;50091.22;;;-146.63;76.60
62462;BME280;48511;38.664;-9.202;2022-12-10T06:37:24;50130.69;;;-146.63;76.73
62462;BME280;48511;38.664;-9.202;2022-12-10T06:39:25;50126.75;;;-146.63;76.61
62462;BME280;48511;38.664;-9.202;2022-12-10T06:41:25;50116.88;;;-146.63;76.62
62462;BME280;48511;38.664;-9.202;2022-12-10T06:43:29;50126.75;;;-146.63;76.75
62462;BME280;48511;38.664;-9.202;2022-12-10T06:45:30;50107.00;;;-146.63;76.67
62462;BME280;48511;38.664;-9.202;2022-12-10T06:47:30;50138.59;;;-146.63;76.02
62462;BME280;48511;38.664;-9.202;2022-12-10T06:49:31;50126.75;;;-146.63;75.89
62462;BME280;48511;38.664;-9.202;2022-12-10T06:51:32;50124.78;;;-146.63;75.77
62462;BME280;48511;38.664;-9.202;2022-12-10T06:53:35;50118.84;;;-146.63;75.87
62462;BME280;48511;38.664;-9.202;2022-12-10T06:55:37;50087.28;;;-146.63;75.44
62462;BME280;48511;38.664;-9.202;2022-12-10T06:57:38;50112.94;;;-146.63;74.47
62462;BME280;48511;38.664;-9.202;2022-12-10T06:59:39;50110.94;;;-146.63;73.09
62462;BME280;48511;38.664;-9.202;2022-12-10T07:01:40;50095.16;;;-146.63;73.10
62462;BME280;48511;38.664;-9.202;2022-12-10T07:03:41;50112.94;;;-146.63;73.52
62462;BME280;48511;38.664;-9.202;2022-12-10T07:05:43;50114.91;;;-146.63;73.19
62462;BME280;48511;38.664;-9.202;2022-12-10T07:07:43;50108.97;;;-146.63;72.88
62462;BME280;48511;38.664;-9.202;2022-12-10T07:09:44;50095.16;;;-146.63;73.44
62462;BME280;48511;38.664;-9.202;2022-12-10T07:11:45;50103.06;;;-146.63;74.06
62462;BME280;48511;38.664;-9.202;2022-12-10T07:13:46;50107.00;;;-146.63;74.53
62462;BME280;48511;38.664;-9.202;2022-12-10T07:15:47;50118.84;;;-146.63;75.26
62462;BME280;48511;38.664;-9.202;2022-12-10T07:17:47;50128.72;;;-146.63;75.86
62462;BME280;48511;38.664;-9.202;2022-12-10T07:19:48;50093.19;;;-146.63;76.28
62462;BME280;48511;38.664;-9.202;2022-12-10T07:21:49;50122.78;;;-146.63;76.57
62462;BME280;48511;38.664;-9.202;2022-12-10T07:23:52;50097.13;;;-146.63;76.91
62462;BME280;48511;38.664;-9.202;2022-12-10T07:25:58;50118.84;;;-146.63;77.40
62462;BME280;48511;38.664;-9.202;2022-12-10T07:27:58;50118.84;;;-146.63;77.81
62462;BME280;48511;38.664;-9.202;2022-12-10T07:29:59;50130.69;;;-146.63;77.91
62462;BME280;48511;38.664;-9.202;2022-12-10T07:32:00;50122.78;;;-146.63;78.27
62462;BME280;48511;38.664;-9.202;2022-12-10T07:34:01;50130.69;;;-146.63;78.43
62462;BME280;48511;38.664;-9.202;2022-12-10T07:36:09;50124.78;;;-146.63;78.52
62462;BME280;48511;38.664;-9.202;2022-12-10T07:38:10;50126.75;;;-146.63;78.60
62462;BME280;48511;38.664;-9.202;2022-12-10T07:40:11;50134.63;;;-146.63;78.90
62462;BME280;48511;38.664;-9.202;2022-12-10T07:42:12;50110.94;;;-146.63;79.00
62462;BME280;48511;38.664;-9.202;2022-12-10T07:44:13;50095.16;;;-146.63;78.73
62462;BME280;48511;38.664;-9.202;2022-12-10T07:46:22;50122.78;;;-146.63;77.43
62462;BME280;48511;38.664;-9.202;2022-12-10T07:48:23;50103.06;;;-146.63;76.88
62462;BME280;48511;38.664;-9.202;2022-12-10T07:50:24;50114.91;;;-146.63;74.40
62462;BME280;48511;38.664;-9.202;2022-12-10T07:52:25;50105.03;;;-146.63;74.22
62462;BME280;48511;38.664;-9.202;2022-12-10T07:54:25;50120.81;;;-146.63;73.50
62462;BME280;48511;38.664;-9.202;2022-12-10T07:56:27;50118.84;;;-146.63;73.65
62462;BME280;48511;38.664;-9.202;2022-12-10T07:58:28;50081.34;;;-146.63;72.21
62462;BME280;48511;38.664;-9.202;2022-12-10T08:00:29;50108.97;;;-146.63;72.74
62462;BME280;48511;38.664;-9.202;2022-12-10T08:02:30;50132.66;;;-146.63;72.88
62462;BME280;48511;38.664;-9.202;2022-12-10T08:04:31;50083.31;;;-146.63;72.72
62462;BME280;48511;38.664;-9.202;2022-12-10T08:06:31;50130.69;;;-146.63;73.00
62462;BME280;48511;38.664;-9.202;2022-12-10T08:08:33;50144.50;;;-146.63;73.21
62462;BME280;48511;38.664;-9.202;2022-12-10T08:10:35;50097.13;;;-146.63;72.38
62462;BME280;48511;38.664;-9.202;2022-12-10T08:12:36;50122.78;;;-146.63;72.37
62462;BME280;48511;38.664;-9.202;2022-12-10T08:14:37;50122.78;;;-146.63;72.87
62462;BME280;48511;38.664;-9.202;2022-12-10T08:16:38;50122.78;;;-146.63;73.35
62462;BME280;48511;38.664;-9.202;2022-12-10T08:18:39;50134.63;;;-146.63;73.52
62462;BME280;48511;38.664;-9.202;2022-12-10T08:20:40;50142.53;;;-146.63;73.75
62462;BME280;48511;38.664;-9.202;2022-12-10T08:22:40;50120.81;;;-146.63;73.81
62462;BME280;48511;38.664;-9.202;2022-12-10T08:24:41;50154.38;;;-146.63;73.74
62462;BME280;48511;38.664;-9.202;2022-12-10T08:26:42;50142.53;;;-146.63;73.91
62462;BME280;48511;38.664;-9.202;2022-12-10T08:28:42;50130.69;;;-146.63;73.99
62462;BME280;48511;38.664;-9.202;2022-12-10T08:30:47;50146.47;;;-146.63;74.00
62462;BME280;48511;38.664;-9.202;2022-12-10T08:32:47;50110.94;;;-146.63;73.81
62462;BME280;48511;38.664;-9.202;2022-12-10T08:34:48;50095.16;;;-146.63;73.70
62462;BME280;48511;38.664;-9.202;2022-12-10T08:36:49;50091.22;;;-146.63;73.53
62462;BME280;48511;38.664;-9.202;2022-12-10T08:38:50;50154.38;;;-146.63;71.92
62462;BME280;48511;38.664;-9.202;2022-12-10T08:40:51;50103.06;;;-146.63;70.83
62462;BME280;48511;38.664;-9.202;2022-12-10T08:42:51;50108.97;;;-146.63;69.66
62462;BME280;48511;38.664;-9.202;2022-12-10T08:44:52;50132.66;;;-146.63;68.33
62462;BME280;48511;38.664;-9.202;2022-12-10T08:46:53;50099.09;;;-146.63;66.86
62462;BME280;48511;38.664;-9.202;2022-12-10T08:48:54;50087.28;;;-146.63;66.21
62462;BME280;48511;38.664;-9.202;2022-12-10T08:50:55;50126.75;;;-146.63;65.70
62462;BME280;48511;38.664;-9.202;2022-12-10T08:52:56;50132.66;;;-146.63;64.95
62462;BME280;48511;38.664;-9.202;2022-12-10T08:54:56;50118.84;;;-146.63;64.71
62462;BME280;48511;38.664;-9.202;2022-12-10T08:56:57;50122.78;;;-146.63;63.86
62462;BME280;48511;38.664;-9.202;2022-12-10T08:58:58;50105.03;;;-146.63;63.73
62462;BME280;48511;38.664;-9.202;2022-12-10T09:00:58;50118.84;;;-146.63;64.26
62462;BME280;48511;38.664;-9.202;2022-12-10T09:03:01;50118.84;;;-146.63;64.28
62462;BME280;48511;38.664;-9.202;2022-12-10T09:05:03;50126.75;;;-146.63;63.78
62462;BME280;48511;38.664;-9.202;2022-12-10T09:07:04;50105.03;;;-146.63;63.96
62462;BME280;48511;38.664;-9.202;2022-12-10T09:09:05;50099.09;;;-146.63;63.51
62462;BME280;48511;38.664;-9.202;2022-12-10T09:11:12;50107.00;;;-146.63;63.06
62462;BME280;48511;38.664;-9.202;2022-12-10T09:13:15;50126.75;;;-146.63;62.09
62462;BME280;48511;38.664;-9.202;2022-12-10T09:15:15;50101.09;;;-146.63;59.50
62462;BME280;48511;38.664;-9.202;2022-12-10T09:17:16;50103.06;;;-146.63;58.04
62462;BME280;48511;38.664;-9.202;2022-12-10T09:19:17;50097.13;;;-146.63;57.55
62462;BME280;48511;38.664;-9.202;2022-12-10T09:21:19;50079.38;;;-146.63;56.50
62462;BME280;48511;38.664;-9.202;2022-12-10T09:23:21;50114.91;;;-146.63;56.38
62462;BME280;48511;38.664;-9.202;2022-12-10T09:25:22;50107.00;;;-146.63;56.23
62462;BME280;48511;38.664;-9.202;2022-12-10T09:27:23;50107.00;;;-146.63;56.05
62462;BME280;48511;38.664;-9.202;2022-12-10T09:29:23;50087.28;;;-146.63;56.19
62462;BME280;48511;38.664;-9.202;2022-12-10T09:31:24;50087.28;;;-146.63;55.81
62462;BME280;48511;38.664;-9.202;2022-12-10T09:33:26;50108.97;;;-146.63;55.97
62462;BME280;48511;38.664;-9.202;2022-12-10T09:35:27;50110.94;;;-146.63;55.56
62462;BME280;48511;38.664;-9.202;2022-12-10T09:37:28;50112.94;;;-146.63;55.58
62462;BME280;48511;38.664;-9.202;2022-12-10T09:39:29;50110.94;;;-146.63;55.61
62462;BME280;48511;38.664;-9.202;2022-12-10T09:48:57;50085.28;;;-146.63;53.24
62462;BME280;48511;38.664;-9.202;2022-12-10T09:53:12;50071.47;;;-146.63;53.16
62462;BME280;48511;38.664;-9.202;2022-12-10T09:55:18;50083.31;;;-146.63;53.57
62462;BME280;48511;38.664;-9.202;2022-12-10T09:57:24;50087.28;;;-146.63;53.91
62462;BME280;48511;38.664;-9.202;2022-12-10T09:59:32;50110.94;;;-146.63;53.93
62462;BME280;48511;38.664;-9.202;2022-12-10T10:01:35;50126.75;;;-146.63;53.32
62462;BME280;48511;38.664;-9.202;2022-12-10T10:03:40;50097.13;;;-146.63;54.16
62462;BME280;48511;38.664;-9.202;2022-12-10T10:05:49;50101.09;;;-146.63;52.90
62462;BME280;48511;38.664;-9.202;2022-12-10T10:07:55;50099.09;;;-146.63;53.40
62462;BME280;48511;38.664;-9.202;2022-12-10T10:10:00;50091.22;;;-146.63;52.38
62462;BME280;48511;38.664;-9.202;2022-12-10T10:12:01;50087.28;;;-146.63;51.78
62462;BME280;48511;38.664;-9.202;2022-12-10T10:14:26;50118.84;;;-146.63;50.79
62462;BME280;48511;38.664;-9.202;2022-12-10T10:18:41;50079.38;;;-146.63;51.08
62462;BME280;48511;38.664;-9.202;2022-12-10T10:20:44;50101.09;;;-146.63;50.13
62462;BME280;48511;38.664;-9.202;2022-12-10T10:22:45;50071.47;;;-146.63;51.02
62462;BME280;48511;38.664;-9.202;2022-12-10T10:24:46;50063.59;;;-146.63;51.64
62462;BME280;48511;38.664;-9.202;2022-12-10T10:26:48;50071.47;;;-146.63;51.08
62462;BME280;48511;38.664;-9.202;2022-12-10T10:28:54;50122.78;;;-146.63;51.46
62462;BME280;48511;38.664;-9.202;2022-12-10T10:30:56;50091.22;;;-146.63;51.34
62462;BME280;48511;38.664;-9.202;2022-12-10T10:32:57;50114.91;;;-146.63;51.08
62462;BME280;48511;38.664;-9.202;2022-12-10T10:37:40;50105.03;;;-146.63;50.92
62462;BME280;48511;38.664;-9.202;2022-12-10T10:39:47;50091.22;;;-146.63;50.43
62462;BME280;48511;38.664;-9.202;2022-12-10T10:41:52;50087.28;;;-146.63;50.85
62462;BME280;48511;38.664;-9.202;2022-12-10T10:44:00;50097.13;;;-146.63;50.80
62462;BME280;48511;38.664;-9.202;2022-12-10T10:46:11;50083.31;;;-146.63;51.06
62462;BME280;48511;38.664;-9.202;2022-12-10T10:48:21;50069.50;;;-146.63;50.94
62462;BME280;48511;38.664;-9.202;2022-12-10T10:50:25;50075.44;;;-146.63;51.50
62462;BME280;48511;38.664;-9.202;2022-12-10T10:52:32;50087.28;;;-146.63;51.25
62462;BME280;48511;38.664;-9.202;2022-12-10T10:54:43;50073.44;;;-146.63;51.40
62462;BME280;48511;38.664;-9.202;2022-12-10T10:56:44;50116.88;;;-146.63;51.77